Time;durP1;ratioP1;P1;durP2;ratioP2;P2;SDS_P1;SDS_P2;PMS_P1;PMS_P2;Temp;Humidity;BMP_temperature;BMP_pressure;BME280_temperature;BME280_humidity;BME280_pressure;Samples;Min_cycle;Max_cycle;Signal;HPM_P1;HPM_P2
2024/02/28 00:02:08;;;;;;;17.77;13.17;;;7.40;99.90;;;;;;5021526;28;20688;-80
2024/02/28 00:04:34;;;;;;;20.67;14.70;;;7.40;99.90;;;;;;5033555;28;20621;-80
2024/02/28 00:07:01;;;;;;;20.90;14.60;;;7.40;99.90;;;;;;5017199;28;20620;-80
2024/02/28 00:09:28;;;;;;;19.93;14.60;;;7.30;99.90;;;;;;5018353;28;20618;-81
2024/02/28 00:11:55;;;;;;;25.77;14.53;;;7.20;99.90;;;;;;5035097;28;20731;-81
2024/02/28 00:14:22;;;;;;;19.30;13.73;;;7.10;99.90;;;;;;5046202;28;20646;-80
2024/02/28 00:16:49;;;;;;;16.97;12.70;;;7.30;99.90;;;;;;5029046;28;20628;-80
2024/02/28 00:19:18;;;;;;;21.33;14.37;;;7.30;99.90;;;;;;5025588;28;20939;-80
2024/02/28 00:21:45;;;;;;;19.03;13.63;;;7.30;99.90;;;;;;5028347;28;20625;-80
2024/02/28 00:24:11;;;;;;;23.67;14.70;;;7.30;99.90;;;;;;5012236;28;20636;-80
2024/02/28 00:26:42;;;;;;;18.20;13.70;;;7.30;99.90;;;;;;5045388;28;20623;-80
2024/02/28 00:29:09;;;;;;;16.93;13.20;;;7.30;99.90;;;;;;5038184;28;20619;-80
2024/02/28 00:31:36;;;;;;;19.90;12.80;;;7.90;99.90;;;;;;5020676;28;20731;-81
2024/02/28 00:34:02;;;;;;;24.03;15.00;;;7.20;99.90;;;;;;5020476;28;20641;-81
2024/02/28 00:36:31;;;;;;;21.57;14.63;;;7.10;99.90;;;;;;5012045;28;21376;-81
2024/02/28 00:38:57;;;;;;;21.30;13.67;;;7.20;99.90;;;;;;5007415;28;20660;-81
2024/02/28 00:41:24;;;;;;;19.30;13.67;;;7.30;99.90;;;;;;5023360;28;20632;-80
2024/02/28 00:43:51;;;;;;;24.23;15.07;;;7.30;99.90;;;;;;5029470;28;20725;-81
2024/02/28 00:46:18;;;;;;;19.20;14.73;;;7.20;99.90;;;;;;5025204;28;20615;-80
2024/02/28 00:48:44;;;;;;;20.08;14.07;;;7.20;99.90;;;;;;5027967;28;20634;-80
2024/02/28 00:51:11;;;;;;;18.10;13.40;;;7.20;99.90;;;;;;5025212;28;20231;-80
2024/02/28 00:53:39;;;;;;;20.38;12.25;;;7.10;99.80;;;;;;5032912;28;20623;-80
2024/02/28 00:56:06;;;;;;;20.70;14.63;;;7.20;99.80;;;;;;5016972;28;20282;-80
2024/02/28 00:58:33;;;;;;;18.43;13.80;;;7.10;99.90;;;;;;5023954;28;20622;-81
2024/02/28 01:01:00;;;;;;;18.87;14.20;;;7.00;99.90;;;;;;5033703;28;20628;-80
2024/02/28 01:03:26;;;;;;;19.30;13.33;;;7.00;99.90;;;;;;5030773;28;20628;-80
2024/02/28 01:05:53;;;;;;;23.13;15.00;;;6.90;99.90;;;;;;5037109;28;20627;-80
2024/02/28 01:08:20;;;;;;;19.57;14.40;;;6.90;99.90;;;;;;5032612;28;20633;-80
2024/02/28 01:10:48;;;;;;;18.27;13.02;;;6.80;99.90;;;;;;5028843;28;20734;-80
2024/02/28 01:13:15;;;;;;;18.73;12.30;;;6.60;99.90;;;;;;5026682;28;20228;-81
2024/02/28 01:15:42;;;;;;;17.43;13.10;;;6.80;99.90;;;;;;5027547;28;20203;-80
2024/02/28 01:18:09;;;;;;;20.10;13.60;;;6.80;99.90;;;;;;5023256;28;21192;-80
2024/02/28 01:20:36;;;;;;;17.53;13.50;;;6.80;99.90;;;;;;5036117;28;20658;-80
2024/02/28 01:23:03;;;;;;;17.03;11.50;;;6.90;99.90;;;;;;5015240;28;20751;-80
2024/02/28 01:25:30;;;;;;;18.73;12.50;;;6.80;99.90;;;;;;5031175;28;20629;-80
2024/02/28 01:27:58;;;;;;;22.27;15.07;;;6.70;99.90;;;;;;5014712;28;20255;-81
2024/02/28 01:30:25;;;;;;;18.00;12.50;;;6.70;99.90;;;;;;5028875;28;20630;-81
2024/02/28 01:32:52;;;;;;;18.42;12.27;;;6.80;99.90;;;;;;5020016;28;20667;-80
2024/02/28 01:35:19;;;;;;;20.50;15.90;;;6.70;99.90;;;;;;5041673;28;20248;-80
2024/02/28 01:37:46;;;;;;;22.70;13.98;;;6.70;99.90;;;;;;5040341;27;20202;-80
2024/02/28 01:40:13;;;;;;;19.17;12.88;;;6.70;99.90;;;;;;5017663;28;20265;-81
2024/02/28 01:42:40;;;;;;;20.92;15.57;;;;;;;;;;5026175;28;20193;-80
2024/02/28 01:45:13;;;;;;;23.02;13.77;;;6.90;99.90;;;;;;5026071;28;20557;-80
2024/02/28 01:47:41;;;;;;;21.15;15.88;;;6.90;99.90;;;;;;5039872;28;20584;-80
2024/02/28 01:50:10;;;;;;;24.15;14.10;;;6.90;99.90;;;;;;5032740;28;20293;-80
2024/02/28 01:52:38;;;;;;;18.42;14.30;;;6.90;99.90;;;;;;5020880;28;20204;-80
2024/02/28 01:55:08;;;;;;;21.30;14.43;;;6.90;99.90;;;;;;5032145;28;20208;-80
2024/02/28 01:57:37;;;;;;;24.30;15.20;;;6.90;99.90;;;;;;5032723;28;20722;-80
2024/02/28 02:00:05;;;;;;;20.40;13.48;;;6.80;99.90;;;;;;5007594;28;20231;-80
2024/02/28 02:02:34;;;;;;;21.33;14.40;;;6.80;99.90;;;;;;5012942;28;20551;-80
2024/02/28 02:05:01;;;;;;;22.10;14.98;;;6.70;99.90;;;;;;5031162;28;20617;-80
2024/02/28 02:07:28;;;;;;;23.65;13.93;;;6.70;99.90;;;;;;5040388;28;20540;-81
2024/02/28 02:09:56;;;;;;;20.63;15.30;;;6.60;99.90;;;;;;5019540;28;20662;-80
2024/02/28 02:12:23;;;;;;;20.67;13.88;;;6.60;99.90;;;;;;5031568;28;20218;-80
2024/02/28 02:14:50;;;;;;;18.08;13.80;;;6.60;99.90;;;;;;5032771;28;20301;-80
2024/02/28 02:17:16;;;;;;;23.08;15.73;;;6.60;99.90;;;;;;5013377;28;20477;-80
2024/02/28 02:19:45;;;;;;;23.48;14.85;;;6.50;99.90;;;;;;5013607;28;20642;-80
2024/02/28 02:22:14;;;;;;;21.08;15.00;;;6.50;99.90;;;;;;5013227;28;20199;-80
2024/02/28 02:24:42;;;;;;;29.33;13.80;;;6.50;99.90;;;;;;5025958;28;20236;-80
2024/02/28 02:27:09;;;;;;;22.15;14.98;;;6.50;99.90;;;;;;5034456;28;20186;-80
2024/02/28 02:29:36;;;;;;;20.55;14.70;;;6.40;99.90;;;;;;5027817;28;20201;-80
2024/02/28 02:32:03;;;;;;;23.42;14.75;;;6.40;99.90;;;;;;5028665;28;20193;-81
2024/02/28 02:34:30;;;;;;;22.35;14.55;;;6.50;99.90;;;;;;5018745;28;20287;-80
2024/02/28 02:36:56;;;;;;;23.63;14.13;;;6.40;99.90;;;;;;5011421;28;20204;-80
2024/02/28 02:39:24;;;;;;;24.92;16.40;;;6.40;99.90;;;;;;5010640;28;20650;-80
2024/02/28 02:41:53;;;;;;;24.95;15.30;;;6.40;99.90;;;;;;5028143;28;20200;-80
2024/02/28 02:44:20;;;;;;;22.52;14.48;;;6.40;99.90;;;;;;5036692;28;20200;-80
2024/02/28 02:46:47;;;;;;;20.33;13.30;;;6.30;99.90;;;;;;5024246;28;20201;-80
2024/02/28 02:49:15;;;;;;;20.98;15.07;;;6.30;99.90;;;;;;5027445;28;20200;-80
2024/02/28 02:51:43;;;;;;;20.65;13.80;;;6.30;99.90;;;;;;5009006;28;20293;-80
2024/02/28 02:54:10;;;;;;;20.52;14.02;;;6.30;99.90;;;;;;5017441;28;20279;-80
2024/02/28 02:56:37;;;;;;;21.55;14.77;;;6.60;99.90;;;;;;5040279;28;20711;-80
2024/02/28 02:59:06;;;;;;;19.30;14.38;;;6.30;99.90;;;;;;5022271;28;20192;-80
2024/02/28 03:01:32;;;;;;;21.95;14.15;;;6.30;99.90;;;;;;5031725;28;20197;-80
2024/02/28 03:04:00;;;;;;;22.52;15.13;;;6.30;99.90;;;;;;5009286;28;20202;-80
2024/02/28 03:06:28;;;;;;;20.88;14.32;;;6.80;99.90;;;;;;5046107;28;20192;-80
2024/02/28 03:08:55;;;;;;;24.30;15.98;;;6.30;99.90;;;;;;5053024;27;20250;-80
2024/02/28 03:11:24;;;;;;;24.55;14.32;;;6.40;99.90;;;;;;5028621;28;20223;-80
2024/02/28 03:13:51;;;;;;;24.05;14.95;;;6.40;99.90;;;;;;5021472;28;20525;-80
2024/02/28 03:16:20;;;;;;;20.73;15.32;;;6.30;99.90;;;;;;5040526;28;20192;-80
2024/02/28 03:18:47;;;;;;;21.73;15.18;;;6.40;99.90;;;;;;5009167;28;20765;-80
2024/02/28 03:21:14;;;;;;;21.77;15.18;;;6.30;99.90;;;;;;5022456;28;20685;-80
2024/02/28 03:23:41;;;;;;;21.23;13.93;;;6.30;99.90;;;;;;5025942;28;20565;-80
2024/02/28 03:26:08;;;;;;;21.67;14.35;;;6.30;99.90;;;;;;5024695;28;20220;-80
2024/02/28 03:28:36;;;;;;;23.88;14.88;;;6.20;99.90;;;;;;5029222;28;20195;-82
2024/02/28 03:31:03;;;;;;;26.70;16.05;;;6.20;99.90;;;;;;5028844;28;20204;-80
2024/02/28 03:33:32;;;;;;;22.75;14.85;;;6.20;99.90;;;;;;5006626;28;20684;-80
2024/02/28 03:36:00;;;;;;;19.23;14.27;;;6.30;99.90;;;;;;5038429;28;20287;-80
2024/02/28 03:38:27;;;;;;;23.17;15.80;;;6.30;99.90;;;;;;5048283;27;20194;-80
2024/02/28 03:40:54;;;;;;;21.55;14.00;;;6.20;99.90;;;;;;5015383;28;20236;-80
2024/02/28 03:43:22;;;;;;;23.23;16.65;;;6.20;99.90;;;;;;5019492;28;20602;-80
2024/02/28 03:45:49;;;;;;;23.52;15.50;;;6.10;99.90;;;;;;5009211;28;20189;-80
2024/02/28 03:48:17;;;;;;;18.60;13.43;;;6.20;99.90;;;;;;5024049;28;20278;-80
2024/02/28 03:50:45;;;;;;;21.25;15.07;;;6.30;99.90;;;;;;5073177;27;20302;-80
2024/02/28 03:53:12;;;;;;;19.65;15.60;;;6.10;99.90;;;;;;5022225;28;20196;-79
2024/02/28 03:55:39;;;;;;;22.65;14.60;;;6.20;99.90;;;;;;5027637;28;20680;-80
2024/02/28 03:58:08;;;;;;;22.52;13.85;;;6.20;99.90;;;;;;5025016;28;20232;-82
2024/02/28 04:00:35;;;;;;;24.13;15.05;;;6.20;99.90;;;;;;5025766;28;20555;-81
2024/02/28 04:03:02;;;;;;;20.45;13.93;;;6.10;99.90;;;;;;5013505;28;20201;-81
2024/02/28 04:05:29;;;;;;;23.15;15.05;;;6.00;99.90;;;;;;5027110;28;20196;-80
2024/02/28 04:07:57;;;;;;;21.73;16.27;;;5.90;99.90;;;;;;5054361;28;20201;-80
2024/02/28 04:10:24;;;;;;;21.73;13.88;;;6.00;99.90;;;;;;5026852;28;20193;-80
2024/02/28 04:12:51;;;;;;;21.42;15.68;;;6.50;99.90;;;;;;5021291;28;20274;-80
2024/02/28 04:15:18;;;;;;;24.38;14.25;;;6.00;99.90;;;;;;5022796;28;20197;-80
2024/02/28 04:17:45;;;;;;;23.73;15.63;;;6.20;99.90;;;;;;5037679;28;20545;-80
2024/02/28 04:20:13;;;;;;;23.92;14.90;;;6.20;99.90;;;;;;5027909;28;20221;-80
2024/02/28 04:22:40;;;;;;;20.52;15.05;;;6.10;99.90;;;;;;5019872;28;20196;-80
2024/02/28 04:25:10;;;;;;;25.88;14.52;;;6.00;99.90;;;;;;5016509;28;20565;-81
2024/02/28 04:27:37;;;;;;;25.73;15.05;;;6.10;99.90;;;;;;5027781;28;20193;-80
2024/02/28 04:30:06;;;;;;;27.98;15.73;;;6.10;99.90;;;;;;5033522;28;20943;-80
2024/02/28 04:32:35;;;;;;;25.70;15.50;;;6.00;99.90;;;;;;5030035;28;20181;-80
2024/02/28 04:35:02;;;;;;;24.35;15.25;;;6.10;99.90;;;;;;5042177;27;21547;-79
2024/02/28 04:37:29;;;;;;;20.35;14.32;;;5.90;99.90;;;;;;5062976;27;20204;-81
2024/02/28 04:39:56;;;;;;;20.08;13.30;;;6.00;99.90;;;;;;5058059;27;20764;-80
2024/02/28 04:42:24;;;;;;;22.95;16.40;;;5.90;99.90;;;;;;5058075;27;20203;-80
2024/02/28 04:44:51;;;;;;;24.17;14.85;;;5.80;99.90;;;;;;5041415;27;20232;-80
2024/02/28 04:47:18;;;;;;;25.25;13.77;;;6.00;99.90;;;;;;5030145;28;20241;-80
2024/02/28 04:49:45;;;;;;;20.85;15.10;;;5.80;99.90;;;;;;5034408;27;20280;-80
2024/02/28 04:52:12;;;;;;;20.95;14.88;;;6.00;99.90;;;;;;5075348;27;20215;-80
2024/02/28 04:54:41;;;;;;;25.30;14.48;;;5.90;99.90;;;;;;5049893;27;20652;-81
2024/02/28 04:57:08;;;;;;;23.83;15.50;;;5.90;99.90;;;;;;5047759;27;20701;-80
2024/02/28 04:59:36;;;;;;;19.65;14.65;;;5.90;99.90;;;;;;5020209;28;20196;-80
2024/02/28 05:02:03;;;;;;;24.13;15.77;;;5.90;99.90;;;;;;5032616;28;20657;-80
2024/02/28 05:04:30;;;;;;;21.63;14.73;;;5.90;99.90;;;;;;5010057;28;20182;-80
2024/02/28 05:06:57;;;;;;;23.13;15.23;;;5.80;99.90;;;;;;5040046;28;20557;-80
2024/02/28 05:09:25;;;;;;;29.20;16.63;;;;;;;;;;5039186;27;20679;-81
2024/02/28 05:11:52;;;;;;;21.05;15.48;;;5.80;99.90;;;;;;5041473;27;20196;-80
2024/02/28 05:14:19;;;;;;;22.60;13.80;;;5.80;99.90;;;;;;5030194;28;20605;-80
2024/02/28 05:16:49;;;;;;;24.92;15.15;;;5.80;99.90;;;;;;5038822;28;20200;-80
2024/02/28 05:19:17;;;;;;;21.35;14.13;;;5.80;99.90;;;;;;5040651;28;20196;-80
2024/02/28 05:21:44;;;;;;;23.13;13.98;;;5.60;99.90;;;;;;5030582;28;20707;-80
2024/02/28 05:24:12;;;;;;;19.58;14.90;;;5.50;99.90;;;;;;5034548;28;20245;-80
2024/02/28 05:26:40;;;;;;;18.02;13.30;;;5.60;99.90;;;;;;5031350;28;20196;-81
2024/02/28 05:29:07;;;;;;;19.58;15.15;;;5.70;99.90;;;;;;5027017;28;20243;-81
2024/02/28 05:31:36;;;;;;;20.20;15.30;;;5.70;99.90;;;;;;5038457;28;20185;-81
2024/02/28 05:34:06;;;;;;;24.08;15.88;;;5.60;99.90;;;;;;5027419;28;20534;-80
2024/02/28 05:36:33;;;;;;;18.40;13.98;;;5.60;99.90;;;;;;5037476;28;20304;-80
2024/02/28 05:39:02;;;;;;;21.38;14.82;;;5.60;99.90;;;;;;5038769;28;20211;-80
2024/02/28 05:41:29;;;;;;;25.17;15.70;;;5.90;99.90;;;;;;5033709;28;20225;-80
2024/02/28 05:43:56;;;;;;;22.08;14.40;;;5.70;99.90;;;;;;5035306;28;20202;-81
2024/02/28 05:46:23;;;;;;;22.40;15.75;;;5.70;99.90;;;;;;5024856;28;20211;-80
2024/02/28 05:48:50;;;;;;;21.15;13.90;;;5.70;99.90;;;;;;5039607;28;20279;-80
2024/02/28 05:51:18;;;;;;;24.67;14.50;;;5.60;99.90;;;;;;5027183;28;20205;-85
2024/02/28 05:53:45;;;;;;;20.08;13.85;;;5.40;99.90;;;;;;5028179;28;20199;-79
2024/02/28 05:56:14;;;;;;;21.23;14.70;;;5.60;99.90;;;;;;5021748;28;20195;-78
2024/02/28 05:58:41;;;;;;;22.83;14.63;;;5.60;99.90;;;;;;5024225;28;20687;-78
2024/02/28 06:01:09;;;;;;;23.77;14.90;;;5.60;99.90;;;;;;5029703;28;20564;-78
2024/02/28 06:03:36;;;;;;;22.85;14.43;;;5.60;99.90;;;;;;5037331;28;20626;-79
2024/02/28 06:06:04;;;;;;;18.85;13.80;;;5.60;99.90;;;;;;5070801;27;20197;-79
2024/02/28 06:08:33;;;;;;;19.42;15.32;;;5.60;99.90;;;;;;5066421;27;20192;-76
2024/02/28 06:11:00;;;;;;;28.58;16.05;;;5.60;99.90;;;;;;5090559;27;20233;-75
2024/02/28 06:13:29;;;;;;;20.83;14.48;;;5.60;99.90;;;;;;5039481;27;20205;-75
2024/02/28 06:15:56;;;;;;;18.88;13.60;;;5.60;99.90;;;;;;5046217;27;20224;-75
2024/02/28 06:18:26;;;;;;;20.80;14.35;;;5.50;99.90;;;;;;5090018;27;20282;-75
2024/02/28 06:20:53;;;;;;;23.52;14.88;;;5.60;99.90;;;;;;5080584;27;20234;-75
2024/02/28 06:23:20;;;;;;;24.92;15.98;;;5.60;99.90;;;;;;5074109;27;20201;-75
2024/02/28 06:25:48;;;;;;;20.70;14.07;;;5.70;99.90;;;;;;5030265;27;20207;-75
2024/02/28 06:28:15;;;;;;;23.70;15.68;;;5.60;99.90;;;;;;5029324;28;20197;-76
2024/02/28 06:30:41;;;;;;;20.88;14.88;;;5.70;99.90;;;;;;5028176;28;20211;-76
2024/02/28 06:33:08;;;;;;;22.67;15.90;;;5.80;99.90;;;;;;5026919;28;20678;-76
2024/02/28 06:35:35;;;;;;;23.55;14.80;;;5.80;99.90;;;;;;5022026;28;20207;-76
2024/02/28 06:38:02;;;;;;;21.25;15.00;;;5.80;99.90;;;;;;5040570;27;20575;-76
2024/02/28 06:40:29;;;;;;;23.55;15.43;;;5.80;99.90;;;;;;5029999;28;20229;-77
2024/02/28 06:42:57;;;;;;;29.27;19.55;;;5.90;99.90;;;;;;5033104;28;20189;-77
2024/02/28 06:45:24;;;;;;;21.92;16.23;;;5.50;99.90;;;;;;5052138;27;20186;-78
2024/02/28 06:47:51;;;;;;;25.58;15.07;;;5.70;99.90;;;;;;5023620;28;20658;-77
2024/02/28 06:50:18;;;;;;;25.55;16.95;;;5.80;99.90;;;;;;5037098;28;20561;-77
2024/02/28 06:52:45;;;;;;;21.70;13.75;;;5.80;99.90;;;;;;5035730;28;20200;-78
2024/02/28 06:55:13;;;;;;;19.20;13.25;;;5.80;99.90;;;;;;5039941;28;20204;-77
2024/02/28 06:57:42;;;;;;;21.65;15.48;;;5.80;99.90;;;;;;5081875;27;20197;-77
2024/02/28 07:00:13;;;;;;;19.48;13.73;;;5.70;99.90;;;;;;5046786;27;20712;-77
2024/02/28 07:02:39;;;;;;;22.65;15.07;;;5.70;99.90;;;;;;5028561;27;20620;-77
2024/02/28 07:05:07;;;;;;;22.50;14.55;;;5.70;99.90;;;;;;5026757;28;20288;-77
2024/02/28 07:07:34;;;;;;;26.02;15.95;;;5.80;99.90;;;;;;5023860;28;20204;-78
2024/02/28 07:10:01;;;;;;;25.38;17.10;;;5.80;99.90;;;;;;5028992;28;20215;-78
2024/02/28 07:12:27;;;;;;;25.02;16.73;;;5.80;99.90;;;;;;5027685;28;20201;-77
2024/02/28 07:14:55;;;;;;;25.30;15.65;;;5.80;99.90;;;;;;5027106;28;20211;-76
2024/02/28 07:17:23;;;;;;;21.40;15.52;;;5.90;99.90;;;;;;5019487;28;20201;-77
2024/02/28 07:19:50;;;;;;;20.98;15.52;;;6.00;99.90;;;;;;5028314;28;20303;-78
2024/02/28 07:22:18;;;;;;;20.00;13.85;;;5.90;99.90;;;;;;5027839;28;20340;-78
2024/02/28 07:24:45;;;;;;;19.50;15.57;;;6.00;99.90;;;;;;5027179;28;20284;-77
2024/02/28 07:27:12;;;;;;;26.40;16.98;;;6.00;99.90;;;;;;5024309;28;20211;-77
2024/02/28 07:29:38;;;;;;;25.08;16.73;;;6.80;99.90;;;;;;5025220;28;20243;-77
2024/02/28 07:32:05;;;;;;;21.80;14.98;;;6.10;99.90;;;;;;5027714;28;20446;-76
2024/02/28 07:34:34;;;;;;;24.88;16.45;;;6.10;99.90;;;;;;5026435;28;20247;-77
2024/02/28 07:37:01;;;;;;;22.13;14.80;;;6.10;99.90;;;;;;5026012;28;20197;-76
2024/02/28 07:39:28;;;;;;;20.70;16.08;;;6.10;99.90;;;;;;5026303;28;20627;-77
2024/02/28 07:41:55;;;;;;;19.80;15.05;;;6.00;99.90;;;;;;5025551;28;20928;-77
2024/02/28 07:44:22;;;;;;;21.52;15.10;;;5.90;99.90;;;;;;5026494;28;20207;-77
2024/02/28 07:46:50;;;;;;;20.33;14.07;;;5.70;99.90;;;;;;5027852;28;20536;-78
2024/02/28 07:49:17;;;;;;;21.27;14.80;;;5.90;99.90;;;;;;5025567;28;20216;-77
2024/02/28 07:51:45;;;;;;;23.73;15.77;;;5.90;99.90;;;;;;5038093;27;20508;-77
2024/02/28 07:54:12;;;;;;;22.20;14.60;;;6.00;99.90;;;;;;5052918;27;20615;-77
2024/02/28 07:56:39;;;;;;;22.25;14.98;;;;;;;;;;5051497;27;20207;-77
2024/02/28 07:59:06;;;;;;;21.00;15.23;;;5.80;99.90;;;;;;5047141;27;20598;-77
2024/02/28 08:01:32;;;;;;;18.98;13.90;;;5.80;99.90;;;;;;5058614;27;20647;-77
2024/02/28 08:04:00;;;;;;;21.10;14.60;;;5.90;99.90;;;;;;5035571;27;20215;-77
2024/02/28 08:06:26;;;;;;;20.50;14.93;;;5.80;99.90;;;;;;5020518;28;20642;-78
2024/02/28 08:08:54;;;;;;;21.83;14.40;;;6.00;99.90;;;;;;5042913;28;20576;-77
2024/02/28 08:11:21;;;;;;;21.60;15.32;;;6.00;99.90;;;;;;5019591;28;20208;-78
2024/02/28 08:13:48;;;;;;;22.52;14.57;;;6.00;99.90;;;;;;5032218;28;20241;-77
2024/02/28 08:16:15;;;;;;;21.23;13.90;;;6.00;99.90;;;;;;5031770;28;20208;-76
2024/02/28 08:18:42;;;;;;;20.15;13.77;;;6.00;99.90;;;;;;5028356;28;20203;-78
2024/02/28 08:21:09;;;;;;;22.08;14.70;;;6.10;99.90;;;;;;5020473;28;20235;-78
2024/02/28 08:23:36;;;;;;;19.67;15.02;;;6.00;99.90;;;;;;5023382;28;20205;-78
2024/02/28 08:26:04;;;;;;;17.70;12.70;;;6.00;99.90;;;;;;5025694;28;20200;-78
2024/02/28 08:28:31;;;;;;;21.27;14.65;;;6.00;99.90;;;;;;5033058;28;20197;-77
2024/02/28 08:30:59;;;;;;;18.85;13.70;;;5.90;99.90;;;;;;5031798;28;20291;-77
2024/02/28 08:33:26;;;;;;;18.02;12.63;;;5.90;99.90;;;;;;5027631;28;20209;-77
2024/02/28 08:35:53;;;;;;;20.85;14.48;;;6.00;99.90;;;;;;5029033;28;20574;-77
2024/02/28 08:38:20;;;;;;;17.73;13.85;;;6.30;99.90;;;;;;5032087;28;20236;-78
2024/02/28 08:40:47;;;;;;;20.95;14.63;;;6.10;99.90;;;;;;5024448;28;20228;-79
2024/02/28 08:43:15;;;;;;;20.50;15.38;;;5.90;99.90;;;;;;5027737;28;20200;-78
2024/02/28 08:45:42;;;;;;;19.45;13.75;;;6.10;99.90;;;;;;5023298;28;20200;-78
2024/02/28 08:48:09;;;;;;;21.23;14.43;;;6.20;99.90;;;;;;5017792;28;20221;-78
2024/02/28 08:50:36;;;;;;;25.38;17.20;;;6.20;99.90;;;;;;5025951;28;20216;-78
2024/02/28 08:53:03;;;;;;;20.63;16.17;;;6.40;99.90;;;;;;5025380;28;20201;-78
2024/02/28 08:55:30;;;;;;;20.85;16.30;;;6.40;99.90;;;;;;5025371;28;20635;-78
2024/02/28 08:57:57;;;;;;;22.67;16.15;;;6.40;99.90;;;;;;5028249;28;20283;-78
2024/02/28 09:00:25;;;;;;;22.10;15.10;;;6.40;99.90;;;;;;5025066;28;20925;-79
2024/02/28 09:02:52;;;;;;;24.80;16.60;;;6.50;99.90;;;;;;5021353;28;20637;-78
2024/02/28 09:05:19;;;;;;;24.33;16.80;;;6.60;99.90;;;;;;5032611;28;20246;-77
2024/02/28 09:07:50;;;;;;;23.40;17.00;;;6.50;99.90;;;;;;5028825;28;20232;-78
2024/02/28 09:10:21;;;;;;;26.37;17.13;;;6.50;99.90;;;;;;5034963;27;20283;-78
2024/02/28 09:12:47;;;;;;;22.70;17.20;;;6.50;99.90;;;;;;5028986;28;20630;-78
2024/02/28 09:15:14;;;;;;;21.85;15.55;;;6.00;99.90;;;;;;5028307;28;20304;-78
2024/02/28 09:17:43;;;;;;;27.15;17.23;;;6.10;99.90;;;;;;5031147;28;20279;-78
2024/02/28 09:20:10;;;;;;;27.27;17.70;;;6.00;99.90;;;;;;5023409;28;20292;-78
2024/02/28 09:22:38;;;;;;;28.48;18.20;;;6.00;99.90;;;;;;5030168;28;20303;-77
2024/02/28 09:25:05;;;;;;;25.80;16.25;;;5.90;99.90;;;;;;5031335;28;20713;-78
2024/02/28 09:27:32;;;;;;;23.80;16.17;;;6.00;99.90;;;;;;5024271;28;20207;-77
2024/02/28 09:29:59;;;;;;;21.15;16.38;;;6.10;99.90;;;;;;5029719;28;20657;-77
2024/02/28 09:32:26;;;;;;;25.10;16.38;;;6.10;99.90;;;;;;5032379;28;20220;-78
2024/02/28 09:34:55;;;;;;;23.77;17.33;;;6.10;99.90;;;;;;5029277;28;20205;-77
2024/02/28 09:37:22;;;;;;;22.23;15.02;;;6.00;99.90;;;;;;5030612;28;20196;-77
2024/02/28 09:39:49;;;;;;;25.23;16.47;;;6.00;99.90;;;;;;5037477;27;20201;-77
2024/02/28 09:42:16;;;;;;;24.92;15.98;;;6.00;99.90;;;;;;5028204;28;21208;-77
2024/02/28 09:44:44;;;;;;;22.55;16.15;;;6.00;99.90;;;;;;5022449;28;20205;-77
2024/02/28 09:47:12;;;;;;;23.50;16.30;;;6.10;99.90;;;;;;5030921;28;20269;-77
2024/02/28 09:49:39;;;;;;;24.80;15.30;;;6.30;99.90;;;;;;5027608;28;20278;-77
2024/02/28 09:52:07;;;;;;;24.73;15.88;;;6.40;99.90;;;;;;5020193;28;20301;-77
2024/02/28 09:54:34;;;;;;;23.98;16.13;;;6.40;99.90;;;;;;5026652;28;20249;-77
2024/02/28 09:57:01;;;;;;;21.90;16.05;;;7.00;99.90;;;;;;5025422;28;20207;-78
2024/02/28 09:59:29;;;;;;;21.45;14.18;;;6.70;99.90;;;;;;5028315;28;20288;-77
2024/02/28 10:02:00;;;;;;;22.48;16.30;;;6.60;99.90;;;;;;5029210;28;20230;-77
2024/02/28 10:04:27;;;;;;;21.73;14.18;;;6.70;99.90;;;;;;5026108;28;20199;-77
2024/02/28 10:06:54;;;;;;;20.67;15.33;;;6.80;99.90;;;;;;5028037;28;20224;-77
2024/02/28 10:09:22;;;;;;;19.43;14.50;;;7.00;99.90;;;;;;5027228;28;20722;-77
2024/02/28 10:11:49;;;;;;;20.45;13.25;;;6.90;99.90;;;;;;5028828;28;20988;-77
2024/02/28 10:14:19;;;;;;;19.07;12.30;;;6.60;99.70;;;;;;5028156;28;20200;-77
2024/02/28 10:16:46;;;;;;;21.33;14.10;;;6.50;99.90;;;;;;5028849;28;20631;-77
2024/02/28 10:19:13;;;;;;;20.75;14.48;;;6.40;99.90;;;;;;5029079;28;20654;-77
2024/02/28 10:21:40;;;;;;;23.37;15.30;;;6.30;99.90;;;;;;5021643;28;20220;-77
2024/02/28 10:24:07;;;;;;;21.02;14.35;;;6.40;99.90;;;;;;5027737;28;20634;-77
2024/02/28 10:26:43;;;;;;;20.85;14.23;;;6.50;99.90;;;;;;5028767;28;20462;-77
2024/02/28 10:29:10;;;;;;;20.33;14.88;;;6.50;99.90;;;;;;5022393;28;20292;-77
2024/02/28 10:31:37;;;;;;;23.33;15.27;;;6.50;99.90;;;;;;5028906;28;20201;-77
2024/02/28 10:34:05;;;;;;;20.77;14.90;;;6.40;99.90;;;;;;5025433;28;20213;-77
2024/02/28 10:36:33;;;;;;;22.77;14.55;;;6.40;99.90;;;;;;5018134;28;20794;-78
2024/02/28 10:39:02;;;;;;;19.48;13.30;;;6.40;99.90;;;;;;5028141;28;20208;-77
2024/02/28 10:41:29;;;;;;;17.65;14.00;;;6.40;99.90;;;;;;5028229;28;20286;-77
2024/02/28 10:43:57;;;;;;;21.80;15.48;;;6.40;99.90;;;;;;5025557;28;20204;-77
2024/02/28 10:46:24;;;;;;;19.17;13.93;;;6.40;99.90;;;;;;5026283;28;20196;-77
2024/02/28 10:48:54;;;;;;;21.40;15.05;;;6.80;99.90;;;;;;5026505;28;20201;-77
2024/02/28 10:51:25;;;;;;;19.75;14.18;;;6.70;99.90;;;;;;5026871;28;20216;-77
2024/02/28 10:54:08;;;;;;;24.80;17.13;;;6.90;99.90;;;;;;5026846;28;20197;-77
2024/02/28 10:56:34;;;;;;;18.52;12.93;;;6.90;99.90;;;;;;5026599;28;20216;-77
2024/02/28 10:59:04;;;;;;;24.83;14.97;;;6.90;99.90;;;;;;5024198;28;20200;-77
2024/02/28 11:01:31;;;;;;;18.57;13.83;;;7.00;99.90;;;;;;5025676;28;20719;-77
2024/02/28 11:03:58;;;;;;;24.00;16.43;;;7.10;99.90;;;;;;5026014;28;21057;-78
2024/02/28 11:06:25;;;;;;;31.57;14.33;;;7.20;99.90;;;;;;5029470;27;20633;-78
2024/02/28 11:08:54;;;;;;;21.47;14.30;;;7.10;99.30;;;;;;5061533;27;20631;-78
2024/02/28 11:11:21;;;;;;;21.53;14.40;;;7.00;99.40;;;;;;5030114;27;20716;-78
2024/02/28 11:13:55;;;;;;;22.95;15.60;;;6.80;99.80;;;;;;5042857;27;20726;-74
2024/02/28 11:16:31;;;;;;;24.17;15.47;;;6.80;99.90;;;;;;5046776;27;20681;-75
2024/02/28 11:18:58;;;;;;;22.10;15.10;;;6.90;99.90;;;;;;5061620;27;20634;-75
2024/02/28 11:21:26;;;;;;;22.37;14.37;;;6.80;99.80;;;;;;5044799;27;20723;-76
2024/02/28 11:23:53;;;;;;;21.70;14.73;;;6.70;99.90;;;;;;5039126;27;20678;-77
2024/02/28 11:26:21;;;;;;;20.83;13.50;;;6.80;99.90;;;;;;5066386;27;21185;-77
2024/02/28 11:28:48;;;;;;;19.88;13.63;;;6.90;99.90;;;;;;5068763;27;20650;-82
2024/02/28 11:31:16;;;;;;;22.53;14.20;;;6.80;99.80;;;;;;5037078;27;20204;-76
2024/02/28 11:33:44;;;;;;;19.50;13.70;;;6.80;99.90;;;;;;5031448;28;20635;-75
2024/02/28 11:36:12;;;;;;;20.83;13.25;;;6.90;99.90;;;;;;5058172;27;20638;-75
2024/02/28 11:38:40;;;;;;;17.60;13.07;;;6.80;99.40;;;;;;5028308;28;20226;-75
2024/02/28 11:41:07;;;;;;;23.17;14.67;;;6.70;99.60;;;;;;5032155;28;20662;-75
2024/02/28 11:43:35;;;;;;;18.00;12.40;;;6.70;99.50;;;;;;5024059;28;21096;-75
2024/02/28 11:46:04;;;;;;;16.90;11.13;;;6.70;99.40;;;;;;5015796;28;20678;-77
2024/02/28 11:48:32;;;;;;;23.07;14.63;;;6.80;99.50;;;;;;5059778;27;20623;-77
2024/02/28 11:51:00;;;;;;;16.83;12.70;;;6.70;99.60;;;;;;5069900;27;20675;-77
2024/02/28 11:53:27;;;;;;;18.30;12.83;;;6.80;99.30;;;;;;5054134;27;21041;-77
2024/02/28 11:55:55;;;;;;;16.63;11.93;;;6.90;99.40;;;;;;5044103;27;20978;-77
2024/02/28 11:58:22;;;;;;;14.10;10.80;;;6.90;98.90;;;;;;5060732;27;21033;-77
2024/02/28 12:00:50;;;;;;;19.47;12.30;;;7.00;99.00;;;;;;5051766;27;20648;-77
2024/02/28 12:03:21;;;;;;;20.83;13.20;;;7.00;99.10;;;;;;5026165;27;20671;-77
2024/02/28 12:05:48;;;;;;;19.50;14.33;;;7.10;99.30;;;;;;5022465;28;20734;-77
2024/02/28 12:08:18;;;;;;;19.90;12.90;;;6.90;99.20;;;;;;5029220;28;21007;-77
2024/02/28 12:10:45;;;;;;;20.43;12.13;;;7.10;99.50;;;;;;5029383;28;20687;-76
2024/02/28 12:13:12;;;;;;;18.23;14.20;;;7.30;99.30;;;;;;5027443;28;21003;-76
2024/02/28 12:15:41;;;;;;;20.30;14.20;;;7.40;98.80;;;;;;5036910;28;20642;-76
2024/02/28 12:18:09;;;;;;;19.53;13.27;;;7.40;98.60;;;;;;5070530;28;20973;-77
2024/02/28 12:20:37;;;;;;;21.13;14.40;;;7.50;98.40;;;;;;5030549;28;20635;-76
2024/02/28 12:23:05;;;;;;;18.20;12.60;;;7.30;98.40;;;;;;5029278;28;20670;-76
2024/02/28 12:25:34;;;;;;;19.83;14.43;;;7.20;98.50;;;;;;5027994;28;20718;-76
2024/02/28 12:28:02;;;;;;;19.43;14.57;;;;;;;;;;5029039;28;20646;-76
2024/02/28 12:30:29;;;;;;;18.50;13.37;;;7.10;98.60;;;;;;5030171;28;21268;-76
2024/02/28 12:32:56;;;;;;;20.13;13.00;;;7.10;99.00;;;;;;5029765;28;20770;-76
2024/02/28 12:35:22;;;;;;;16.90;14.03;;;7.10;99.00;;;;;;5028239;28;21262;-76
2024/02/28 12:37:49;;;;;;;19.00;12.37;;;7.00;98.80;;;;;;5028615;28;20827;-76
2024/02/28 12:40:18;;;;;;;20.20;13.07;;;7.10;98.90;;;;;;5030267;28;20632;-76